Terminal Aerodrome Forecast
Issued by NWS Brownsville, TX

Home | Current Version | Previous Version | Text Only | Print | Product List | Glossary On
Versions: 1 2 3 4 5 6 7 8 9 10 11 12 13 14 15 16 17 18 19 20 21 22 23 24 25 26 27
931
FTUS44 KBRO 221336 AAC
TAFHRL
TAF AMD
KHRL 221336Z 2214/2312 15008KT 1 1/2SM BR OVC002
     FM221500 14010KT P6SM BKN035
     FM221800 15013KT P6SM VCTS SCT025 OVC040CB
      TEMPO 2218/2221 6SM TSRA BKN025CB
     FM230000 11010KT P6SM VCSH BKN050 OVC100 PROB30 2300/2306 P6SM
      -SHRA SCT025 OVC050
     FM230600 14010KT P6SM BKN025 OVC050=

USA.gov is the U.S. government's official web portal to all federal, state and local government web resources and services.